Time;durP1;ratioP1;P1;durP2;ratioP2;P2;SDS_P1;SDS_P2;PMS_P1;PMS_P2;Temp;Humidity;BMP_temperature;BMP_pressure;BME280_temperature;BME280_humidity;BME280_pressure;Samples;Min_cycle;Max_cycle;Signal;HPM_P1;HPM_P2
2023/07/12 00:00:29;;;;;;;13.40;7.97;;;;;;;20.19;100.00;97648.03;5092275;28;20028;-75
2023/07/12 00:02:56;;;;;;;14.35;8.52;;;;;;;20.20;100.00;97652.47;5091890;28;20039;-75
2023/07/12 00:05:27;;;;;;;11.48;7.68;;;;;;;20.21;100.00;97645.19;5112555;28;20030;-75
2023/07/12 00:07:52;;;;;;;14.55;7.85;;;;;;;20.21;100.00;97645.19;5095932;28;20023;-75
2023/07/12 00:10:29;;;;;;;11.68;8.18;;;;;;;20.13;100.00;97648.63;5091898;28;20395;-75
2023/07/12 00:12:55;;;;;;;11.55;7.90;;;;;;;20.04;100.00;97646.84;5091924;28;20606;-75
2023/07/12 00:15:26;;;;;;;11.07;8.20;;;;;;;19.91;100.00;97652.59;5091771;28;20391;-75
2023/07/12 00:17:52;;;;;;;15.25;7.65;;;;;;;19.89;100.00;97656.50;5091769;28;20368;-76
2023/07/12 00:20:26;;;;;;;11.93;8.43;;;;;;;19.76;100.00;97639.69;5091311;28;20043;-76
2023/07/12 00:22:51;;;;;;;9.90;7.53;;;;;;;19.78;100.00;97648.56;5091721;28;20028;-75
2023/07/12 00:25:18;;;;;;;18.75;9.13;;;;;;;19.75;100.00;97636.09;5074469;28;20059;-75
2023/07/12 00:27:44;;;;;;;13.02;8.52;;;;;;;19.69;100.00;97644.84;5091637;28;20111;-75
2023/07/12 00:30:20;;;;;;;13.85;8.13;;;;;;;19.74;100.00;97641.69;5111258;28;20038;-75
2023/07/12 00:32:53;;;;;;;16.02;8.30;;;;;;;19.72;100.00;97635.56;5112199;28;20020;-77
2023/07/12 00:35:22;;;;;;;14.65;8.85;;;;;;;19.71;100.00;97631.13;5095199;28;20034;-75
2023/07/12 00:37:49;;;;;;;11.68;8.32;;;;;;;19.64;100.00;97633.59;5094789;28;20028;-75
2023/07/12 00:40:53;;;;;;;13.10;8.73;;;;;;;19.66;100.00;97634.28;5094678;28;20557;-75
2023/07/12 00:43:23;;;;;;;14.32;8.38;;;;;;;19.69;100.00;97633.13;5113120;28;20106;-75
2023/07/12 00:45:51;;;;;;;11.15;8.38;;;;;;;19.56;100.00;97632.63;5111934;28;20399;-75
2023/07/12 00:48:16;;;;;;;15.43;8.98;;;;;;;19.64;100.00;97628.16;5111551;28;20027;-75
2023/07/12 00:50:42;;;;;;;13.90;8.45;;;;;;;19.58;100.00;97625.19;5094488;28;20081;-75
2023/07/12 00:53:16;;;;;;;14.60;8.65;;;;;;;19.53;100.00;97625.66;5094484;28;20059;-76
2023/07/12 00:55:57;;;;;;;14.27;8.93;;;;;;;19.53;100.00;97633.78;5111379;28;20462;-75
2023/07/12 00:58:23;;;;;;;11.48;8.50;;;;;;;19.50;100.00;97628.66;5113193;28;20485;-75
2023/07/12 01:00:50;;;;;;;14.77;8.85;;;;;;;19.41;100.00;97624.13;5094257;28;20439;-75
2023/07/12 01:03:18;;;;;;;16.13;8.93;;;;;;;19.36;100.00;97623.66;5104567;28;20035;-75
2023/07/12 01:05:44;;;;;;;14.30;8.98;;;;;;;19.36;100.00;97626.38;5073876;28;20376;-75
2023/07/12 01:08:12;;;;;;;16.30;8.38;;;;;;;19.21;100.00;97620.56;5090868;28;20032;-75
2023/07/12 01:10:38;;;;;;;10.63;8.07;;;;;;;19.24;100.00;97631.13;5092007;28;20104;-75
2023/07/12 01:13:07;;;;;;;11.60;8.20;;;;;;;19.24;100.00;97625.69;5094220;28;20054;-75
2023/07/12 01:15:34;;;;;;;16.20;9.25;;;;;;;19.35;100.00;97638.22;5110908;28;20466;-76
2023/07/12 01:18:00;;;;;;;14.32;8.68;;;;;;;19.32;100.00;97625.81;5111107;28;20088;-75
2023/07/12 01:20:26;;;;;;;16.40;8.40;;;;;;;19.35;100.00;97628.22;5094729;28;20409;-75
2023/07/12 01:22:53;;;;;;;11.65;8.32;;;;;;;19.31;100.00;97625.97;5101815;28;20066;-75
2023/07/12 01:25:38;;;;;;;16.75;9.13;;;;;;;19.26;100.00;97625.53;5110706;28;20055;-75
2023/07/12 01:28:04;;;;;;;11.57;7.90;;;;;;;19.27;100.00;97621.81;5097993;28;20478;-75
2023/07/12 01:30:30;;;;;;;11.98;8.35;;;;;;;19.30;100.00;97629.66;5106615;28;20058;-75
2023/07/12 01:32:55;;;;;;;15.23;8.88;;;;;;;19.19;100.00;97621.72;5093450;28;20027;-75
2023/07/12 01:35:21;;;;;;;11.77;8.07;;;;;;;19.16;100.00;97622.00;5093724;28;20039;-75
2023/07/12 01:37:47;;;;;;;12.30;8.02;;;;;;;19.11;100.00;97632.44;5093734;28;20020;-75
2023/07/12 01:40:12;;;;;;;13.07;7.93;;;;;;;19.02;100.00;97630.59;5093723;28;20469;-75
2023/07/12 01:42:38;;;;;;;14.25;8.55;;;;;;;19.11;100.00;97627.00;5110396;28;20140;-75
2023/07/12 01:45:04;;;;;;;10.65;8.15;;;;;;;19.05;100.00;97624.88;5093457;28;20035;-75
2023/07/12 01:47:30;;;;;;;15.18;8.40;;;;;;;19.04;100.00;97634.84;5110356;28;20066;-75
2023/07/12 01:49:56;;;;;;;13.52;8.43;;;;;;;18.99;100.00;97631.75;5110374;28;20038;-75
2023/07/12 01:52:22;;;;;;;14.48;7.80;;;;;;;19.02;100.00;97631.44;5093415;28;20024;-75
2023/07/12 01:54:48;;;;;;;14.90;8.82;;;;;;;18.99;100.00;97636.31;5093352;28;20501;-75
2023/07/12 01:57:15;;;;;;;14.35;8.40;;;;;;;18.95;100.00;97633.00;5105149;28;20032;-74
2023/07/12 01:59:40;;;;;;;12.10;8.77;;;;;;;18.92;100.00;97642.31;5089938;28;20027;-74
2023/07/12 02:02:06;;;;;;;21.02;9.30;;;;;;;18.79;100.00;97633.63;5110276;28;20498;-75
2023/07/12 02:04:31;;;;;;;12.25;8.77;;;;;;;18.83;100.00;97634.19;5093116;28;20509;-75
2023/07/12 02:06:57;;;;;;;12.27;9.05;;;;;;;18.83;100.00;97639.59;5110122;28;20027;-75
2023/07/12 02:09:22;;;;;;;12.43;8.73;;;;;;;18.82;100.00;97652.31;5104248;28;20437;-75
2023/07/12 02:11:48;;;;;;;21.40;9.05;;;;;;;18.75;100.00;97645.75;5089566;28;20063;-76
2023/07/12 02:14:13;;;;;;;19.25;9.20;;;;;;;18.78;100.00;97647.31;5089925;28;20410;-77
2023/07/12 02:16:39;;;;;;;21.42;9.32;;;;;;;18.76;100.00;97650.19;5090939;28;20038;-75
2023/07/12 02:19:04;;;;;;;11.93;8.80;;;;;;;18.79;100.00;97655.31;5095151;28;20039;-74
2023/07/12 02:21:30;;;;;;;15.05;9.07;;;;;;;18.71;100.00;97663.28;5089592;28;20393;-75
2023/07/12 02:23:55;;;;;;;14.07;8.57;;;;;;;18.64;100.00;97669.44;5085736;28;20038;-75
2023/07/12 02:26:21;;;;;;;11.88;8.35;;;;;;;18.65;100.00;97665.72;5124000;27;20122;-76
2023/07/12 02:28:46;;;;;;;17.90;9.15;;;;;;;18.62;100.00;97668.69;5096260;28;20035;-75
2023/07/12 02:31:23;;;;;;;21.42;8.80;;;;;;;18.67;100.00;97664.56;5113317;28;20065;-75
2023/07/12 02:33:50;;;;;;;16.02;8.63;;;;;;;18.62;100.00;97668.69;5098837;28;20026;-75
2023/07/12 02:36:15;;;;;;;14.88;8.60;;;;;;;18.59;100.00;97672.56;5092878;28;20383;-75
2023/07/12 02:38:41;;;;;;;14.02;9.07;;;;;;;18.64;100.00;97675.69;5093037;28;20125;-75
2023/07/12 02:41:07;;;;;;;14.25;8.75;;;;;;;18.53;100.00;97666.84;5110947;28;20062;-75
2023/07/12 02:43:33;;;;;;;14.75;9.15;;;;;;;18.51;100.00;97666.13;5079072;28;20062;-76
2023/07/12 02:45:59;;;;;;;13.63;9.35;;;;;;;18.52;100.00;97667.84;5097092;28;20088;-76
2023/07/12 02:48:24;;;;;;;19.60;9.30;;;;;;;18.48;100.00;97671.81;5131347;27;20027;-76
2023/07/12 02:50:50;;;;;;;17.98;10.15;;;;;;;18.54;100.00;97677.56;5117335;27;20035;-76
2023/07/12 02:53:17;;;;;;;29.70;19.58;;;;;;;18.58;100.00;97678.97;5100214;27;20066;-76
2023/07/12 02:55:42;;;;;;;20.75;9.75;;;;;;;18.63;100.00;97674.00;5117090;27;20094;-76
2023/07/12 02:58:08;;;;;;;18.38;10.10;;;;;;;18.62;100.00;97677.69;5127626;27;20031;-77
2023/07/12 03:00:33;;;;;;;14.95;9.43;;;;;;;18.65;100.00;97684.66;5096433;28;20035;-77
2023/07/12 03:02:59;;;;;;;23.58;9.35;;;;;;;18.61;100.00;97684.09;5096812;28;20515;-76
2023/07/12 03:05:24;;;;;;;21.25;11.35;;;;;;;18.59;100.00;97688.81;5096568;28;20031;-76
2023/07/12 03:07:52;;;;;;;22.85;11.07;;;;;;;18.52;100.00;97682.22;5082022;27;20038;-76
2023/07/12 03:10:18;;;;;;;26.08;12.13;;;;;;;18.57;100.00;97693.53;5082363;28;20073;-76
2023/07/12 03:12:43;;;;;;;38.13;17.08;;;;;;;18.58;100.00;97695.22;5096389;28;20419;-76
2023/07/12 03:15:09;;;;;;;19.40;10.35;;;;;;;18.59;100.00;97698.78;5101334;27;20143;-77
2023/07/12 03:17:35;;;;;;;14.65;9.02;;;;;;;18.66;100.00;97705.38;5116658;27;20132;-77
2023/07/12 03:20:00;;;;;;;14.90;9.57;;;;;;;18.60;100.00;97704.09;5104971;28;20024;-76
2023/07/12 03:22:26;;;;;;;16.90;10.13;;;;;;;18.55;100.00;97695.50;5085012;28;20027;-76
2023/07/12 03:24:51;;;;;;;27.58;10.80;;;;;;;18.54;100.00;97692.94;5114713;28;20016;-76
2023/07/12 03:27:17;;;;;;;25.85;10.82;;;;;;;18.64;100.00;97710.09;5104837;27;20044;-76
2023/07/12 03:29:43;;;;;;;28.10;11.40;;;;;;;18.66;100.00;97716.19;5099003;28;20020;-76
2023/07/12 03:32:08;;;;;;;41.00;12.57;;;;;;;18.72;100.00;97718.34;5111843;27;20031;-76
2023/07/12 03:34:34;;;;;;;45.63;13.30;;;;;;;18.79;100.00;97725.78;5099329;27;20038;-76
2023/07/12 03:37:00;;;;;;;26.65;11.18;;;;;;;18.84;100.00;97718.06;5110827;28;20031;-77
2023/07/12 03:39:26;;;;;;;22.17;11.18;;;;;;;18.79;100.00;97714.09;5079038;28;20479;-77
2023/07/12 03:41:52;;;;;;;16.73;10.13;;;;;;;18.80;100.00;97722.06;5114040;28;20103;-77
2023/07/12 03:44:17;;;;;;;26.75;11.50;;;;;;;18.90;100.00;97716.66;5096314;28;20480;-77
2023/07/12 03:46:43;;;;;;;21.02;11.20;;;;;;;18.85;100.00;97711.66;5078719;28;20024;-77
2023/07/12 03:49:08;;;;;;;30.42;13.02;;;;;;;18.76;100.00;97707.09;5095866;28;20143;-78
2023/07/12 03:51:34;;;;;;;30.55;11.40;;;;;;;18.87;100.00;97712.38;5078117;28;20406;-77
2023/07/12 03:54:00;;;;;;;22.65;10.05;;;;;;;18.98;100.00;97715.94;5094817;28;20023;-77
2023/07/12 03:56:25;;;;;;;20.65;10.82;;;;;;;18.94;100.00;97712.66;5095378;28;20030;-76
2023/07/12 03:58:51;;;;;;;32.35;13.43;;;;;;;19.10;100.00;97723.81;5082361;27;20027;-76
2023/07/12 04:01:17;;;;;;;29.48;10.63;;;;;;;19.09;100.00;97726.63;5116326;27;20030;-77
2023/07/12 04:03:43;;;;;;;38.03;15.73;;;;;;;18.94;100.00;97724.38;5099074;27;20403;-76
2023/07/12 04:06:09;;;;;;;20.70;9.68;;;;;;;19.00;100.00;97728.34;5116016;27;20031;-76
2023/07/12 04:08:35;;;;;;;27.60;10.43;;;;;;;19.11;100.00;97724.63;5115635;27;20054;-76
2023/07/12 04:11:02;;;;;;;28.33;11.18;;;;;;;19.16;100.00;97722.34;5078396;28;20055;-77
2023/07/12 04:13:28;;;;;;;36.95;15.80;;;;;;;19.24;100.00;97717.91;5103654;27;20034;-76
2023/07/12 04:15:55;;;;;;;26.00;10.48;;;;;;;19.38;100.00;97717.47;5094896;28;20019;-76
2023/07/12 04:18:22;;;;;;;25.02;9.98;;;;;;;19.49;100.00;97713.78;5095288;28;20023;-76
2023/07/12 04:20:48;;;;;;;18.05;9.93;;;;;;;19.63;100.00;97718.72;5078220;28;20399;-76
2023/07/12 04:23:13;;;;;;;19.38;10.32;;;;;;;19.73;100.00;97716.84;5125013;27;20019;-76
2023/07/12 04:25:39;;;;;;;18.70;10.27;;;;;;;19.78;100.00;97711.00;5080154;28;20040;-77
2023/07/12 04:28:04;;;;;;;20.83;9.70;;;;;;;19.92;100.00;97713.22;5078100;28;20034;-77
2023/07/12 04:30:30;;;;;;;21.23;10.27;;;;;;;20.08;100.00;97709.84;5111700;27;20108;-77
2023/07/12 04:32:55;;;;;;;25.35;9.73;;;;;;;20.14;100.00;97715.56;5133575;27;20054;-76
2023/07/12 04:35:21;;;;;;;24.05;10.25;;;;;;;20.12;100.00;97709.38;5111613;28;20023;-76
2023/07/12 04:37:48;;;;;;;22.67;10.15;;;;;;;20.18;100.00;97718.81;5085990;28;20123;-75
2023/07/12 04:40:14;;;;;;;19.88;10.63;;;;;;;20.34;100.00;97706.31;5091650;27;20031;-76
2023/07/12 04:42:40;;;;;;;23.58;9.52;;;;;;;20.29;100.00;97700.50;5133378;27;20086;-76
2023/07/12 04:45:06;;;;;;;25.75;10.25;;;;;;;20.53;100.00;97706.22;5087912;28;20031;-76
2023/07/12 04:47:32;;;;;;;24.90;11.07;;;;;;;20.59;100.00;97703.88;5094704;28;20440;-76
2023/07/12 04:49:58;;;;;;;26.27;10.32;;;;;;;20.81;100.00;97704.28;5121367;27;20031;-76
2023/07/12 04:52:23;;;;;;;25.67;10.20;;;;;;;20.93;100.00;97703.06;5114893;27;20079;-77
2023/07/12 04:54:49;;;;;;;19.70;10.15;;;;;;;21.06;100.00;97708.97;5114665;27;20494;-76
2023/07/12 04:57:14;;;;;;;27.20;10.35;;;;;;;21.29;100.00;97703.91;5114512;27;20027;-76
2023/07/12 04:59:40;;;;;;;29.90;10.60;;;;;;;21.65;100.00;97707.41;5097528;27;20474;-76
2023/07/12 05:02:06;;;;;;;30.70;11.38;;;;;;;22.02;100.00;97709.88;5114778;27;20035;-76
2023/07/12 05:04:31;;;;;;;19.58;10.30;;;;;;;22.38;100.00;97707.81;5133089;27;20038;-76
2023/07/12 05:06:57;;;;;;;29.63;9.90;;;;;;;22.89;100.00;97710.38;5093908;28;20035;-76
2023/07/12 05:09:23;;;;;;;20.35;10.00;;;;;;;24.01;100.00;97700.47;5114280;27;20030;-77
2023/07/12 05:11:49;;;;;;;20.80;10.75;;;;;;;24.68;100.00;97709.13;5114587;27;20084;-77
2023/07/12 05:14:14;;;;;;;22.45;10.10;;;;;;;25.20;100.00;97692.91;5098631;27;20027;-77
2023/07/12 05:16:40;;;;;;;25.75;9.43;;;;;;;26.16;100.00;97685.69;5077245;28;20410;-77
2023/07/12 05:19:05;;;;;;;20.58;10.15;;;;;;;27.19;100.00;97689.13;5102489;28;20080;-78
2023/07/12 05:21:31;;;;;;;29.13;10.35;;;;;;;27.92;100.00;97679.63;5077147;28;20032;-77
2023/07/12 05:23:56;;;;;;;21.23;9.77;;;;;;;28.24;100.00;97679.00;5087147;27;20027;-77
2023/07/12 05:26:22;;;;;;;32.08;9.80;;;;;;;28.70;100.00;97673.75;5097317;27;20035;-77
2023/07/12 05:28:48;;;;;;;34.72;10.07;;;;;;;28.88;100.00;97687.00;5108647;27;20032;-77
2023/07/12 05:31:14;;;;;;;26.20;9.27;;;;;;;29.59;96.55;97680.78;5129982;27;20027;-76
2023/07/12 05:33:45;;;;;;;40.92;19.88;;;;;;;29.87;93.90;97682.53;5071991;27;20403;-75
2023/07/12 05:36:11;;;;;;;20.03;9.50;;;;;;;30.45;88.12;97676.09;5087716;27;20046;-76
2023/07/12 05:38:37;;;;;;;16.83;9.77;;;;;;;31.07;85.06;97672.63;5111370;27;20042;-77
2023/07/12 05:41:03;;;;;;;18.90;10.05;;;;;;;31.33;82.82;97671.63;5089433;27;20030;-75
2023/07/12 05:43:28;;;;;;;20.10;9.80;;;;;;;31.58;80.45;97671.69;5078534;27;20038;-77
2023/07/12 05:45:57;;;;;;;22.55;9.18;;;;;;;31.41;78.61;97663.03;5097401;27;20024;-76
2023/07/12 05:48:23;;;;;;;37.72;10.23;;;;;;;32.05;75.54;97667.50;5104324;27;20465;-76
2023/07/12 05:50:51;;;;;;;46.92;13.32;;;;;;;32.35;75.51;97667.59;5088150;27;20038;-76
2023/07/12 05:53:16;;;;;;;34.55;10.93;;;;;;;32.54;73.25;97656.31;5081905;27;20086;-76
2023/07/12 05:55:42;;;;;;;22.42;9.55;;;;;;;32.68;70.27;97660.63;5122519;27;20587;-76
2023/07/12 05:58:07;;;;;;;18.85;9.88;;;;;;;32.51;70.23;97665.06;5119976;27;20035;-75
2023/07/12 06:00:33;;;;;;;28.58;10.82;;;;;;;32.79;69.83;97663.69;5096152;28;20050;-75
2023/07/12 06:02:58;;;;;;;17.27;9.38;;;;;;;32.55;72.84;97668.19;5124634;27;20406;-75
2023/07/12 06:05:24;;;;;;;14.73;9.70;;;;;;;32.48;74.65;97676.63;5110370;27;20026;-74
2023/07/12 06:07:50;;;;;;;16.33;10.32;;;;;;;32.41;76.30;97675.84;5098800;28;20023;-76
2023/07/12 06:10:16;;;;;;;19.30;8.88;;;;;;;32.93;72.85;97671.59;5118609;27;20179;-76
2023/07/12 06:12:42;;;;;;;17.92;9.13;;;;;;;33.09;72.29;97671.00;5100247;28;20489;-76
2023/07/12 06:15:08;;;;;;;41.88;10.50;;;;;;;33.45;68.98;97670.03;5088143;27;20134;-77
2023/07/12 06:17:33;;;;;;;13.98;9.15;;;;;;;33.80;66.86;97670.16;5093184;28;20388;-77
2023/07/12 06:19:59;;;;;;;25.92;10.82;;;;;;;34.30;62.09;97662.25;5090312;28;20034;-76
2023/07/12 06:22:24;;;;;;;26.27;9.73;;;;;;;34.66;60.22;97667.53;5098928;28;20034;-73
2023/07/12 06:24:50;;;;;;;19.92;8.75;;;;;;;35.20;58.46;97668.94;5098748;28;20023;-74
2023/07/12 06:27:15;;;;;;;18.55;9.70;;;;;;;34.93;58.82;97669.75;5088864;28;20035;-77
2023/07/12 06:29:42;;;;;;;16.33;8.98;;;;;;;34.69;58.12;97669.81;5090091;28;20138;-74
2023/07/12 06:32:11;;;;;;;24.88;17.23;;;;;;;34.95;58.18;97667.59;5092246;28;20126;-73
2023/07/12 06:34:37;;;;;;;32.03;14.55;;;;;;;35.45;59.84;97684.44;5104178;28;20096;-75
2023/07/12 06:37:02;;;;;;;15.10;9.60;;;;;;;35.44;56.64;97683.59;5098023;28;20042;-75
2023/07/12 06:39:28;;;;;;;22.55;9.32;;;;;;;35.62;56.47;97688.16;5110236;28;20031;-76
2023/07/12 06:41:53;;;;;;;25.52;9.55;;;;;;;35.48;56.98;97684.78;5093223;28;20020;-77
2023/07/12 06:44:19;;;;;;;25.05;11.52;;;;;;;35.62;56.07;97682.59;5110336;28;20031;-76
2023/07/12 06:46:47;;;;;;;10.88;9.13;;;;;;;35.96;54.02;97677.88;5110533;28;20016;-76
2023/07/12 06:49:15;;;;;;;13.90;9.43;;;;;;;36.52;52.96;97676.84;5110020;28;20029;-77
2023/07/12 06:51:41;;;;;;;20.48;10.30;;;;;;;36.22;53.41;97677.22;5097663;28;20020;-76
2023/07/12 06:54:07;;;;;;;15.50;9.25;;;;;;;36.78;52.30;97684.47;5089750;28;20106;-76
2023/07/12 06:56:32;;;;;;;27.98;9.23;;;;;;;37.26;50.57;97681.75;5089686;28;20115;-77
2023/07/12 06:58:58;;;;;;;16.30;8.30;;;;;;;37.47;48.04;97671.72;5089930;28;20023;-76
2023/07/12 07:01:25;;;;;;;12.77;8.65;;;;;;;37.59;47.21;97680.78;5107919;28;20027;-82
2023/07/12 07:03:51;;;;;;;13.77;8.98;;;;;;;38.29;45.85;97679.72;5079695;28;20433;-77
2023/07/12 07:06:19;;;;;;;16.42;9.15;;;;;;;38.51;44.39;97666.50;5093471;28;20038;-78
2023/07/12 07:08:44;;;;;;;17.85;8.02;;;;;;;37.52;44.49;97651.34;5104530;28;20471;-76
2023/07/12 07:11:10;;;;;;;16.20;9.15;;;;;;;37.77;44.12;97658.03;5093422;28;20034;-76
2023/07/12 07:13:35;;;;;;;17.20;8.23;;;;;;;37.42;44.16;97652.06;5100852;28;20026;-78
2023/07/12 07:29:36;;;;;;;11.93;8.60;;;;;;;39.89;39.93;97645.16;5065604;28;20393;-82
2023/07/12 07:32:01;;;;;;;11.93;8.07;;;;;;;40.06;40.05;97640.09;5064280;28;20040;-81
2023/07/12 07:34:27;;;;;;;12.18;8.63;;;;;;;40.42;39.18;97635.34;5067961;28;20036;-74
2023/07/12 07:36:52;;;;;;;14.93;11.93;;;;;;;40.02;40.18;97641.78;5068091;28;20048;-76
2023/07/12 07:39:18;;;;;;;23.85;10.88;;;;;;;40.26;39.63;97639.28;5050776;28;20031;-78
2023/07/12 07:41:43;;;;;;;15.43;9.70;;;;;;;39.24;41.28;97639.44;5067797;28;20501;-78
2023/07/12 07:44:09;;;;;;;12.50;9.13;;;;;;;40.11;40.13;97644.06;5075039;28;20047;-78
2023/07/12 07:46:34;;;;;;;16.40;9.18;;;;;;;41.42;39.21;97643.69;5064419;28;20032;-77
2023/07/12 07:49:00;;;;;;;20.33;9.20;;;;;;;42.09;37.15;97637.31;5079885;28;20107;-80
2023/07/12 07:51:27;;;;;;;15.10;8.20;;;;;;;42.25;36.28;97632.41;5050858;28;20080;-76
2023/07/12 07:53:53;;;;;;;13.10;8.40;;;;;;;42.01;36.13;97633.16;5067172;28;20421;-78
2023/07/12 07:56:18;;;;;;;17.17;10.35;;;;;;;42.47;36.01;97641.19;5065858;28;20028;-78
2023/07/12 07:58:44;;;;;;;12.90;9.65;;;;;;;43.34;35.39;97625.81;5047065;28;20424;-77
2023/07/12 08:01:09;;;;;;;18.20;9.00;;;;;;;43.01;36.16;97633.28;5047252;28;20111;-78
2023/07/12 08:03:34;;;;;;;16.95;8.82;;;;;;;43.26;35.04;97626.47;5083839;28;20487;-75
2023/07/12 08:06:04;;;;;;;15.15;9.23;;;;;;;42.84;35.86;97627.28;5069869;28;20028;-76
2023/07/12 08:08:32;;;;;;;18.90;8.82;;;;;;;43.03;36.00;97633.84;5046511;28;20111;-77
2023/07/12 08:10:58;;;;;;;11.35;8.23;;;;;;;42.77;36.15;97618.34;5079676;28;20563;-76
2023/07/12 08:13:24;;;;;;;15.07;8.27;;;;;;;42.10;36.48;97622.97;5075561;28;20070;-76
2023/07/12 08:15:49;;;;;;;20.98;9.05;;;;;;;42.62;35.75;97621.34;5063301;28;20024;-76
2023/07/12 08:18:15;;;;;;;14.85;8.43;;;;;;;43.12;34.85;97632.03;5062996;28;20024;-77
2023/07/12 08:20:40;;;;;;;13.50;7.63;;;;;;;43.10;35.09;97625.81;5083560;28;20032;-76
2023/07/12 08:23:07;;;;;;;16.00;8.57;;;;;;;40.73;39.10;97641.75;5084447;28;20417;-80
2023/07/12 08:25:32;;;;;;;14.73;7.90;;;;;;;41.17;40.12;97646.59;5084880;28;20094;-75
2023/07/12 08:27:58;;;;;;;14.18;8.70;;;;;;;41.30;38.05;97644.03;5083067;28;20056;-76
2023/07/12 08:30:23;;;;;;;23.90;9.05;;;;;;;41.73;38.47;97645.16;5082961;28;20126;-75
2023/07/12 08:32:49;;;;;;;26.80;10.10;;;;;;;42.21;38.95;97639.78;5074794;28;20039;-77
2023/07/12 08:35:14;;;;;;;17.13;7.82;;;;;;;42.29;36.79;97633.50;5067193;28;20028;-76
2023/07/12 08:37:40;;;;;;;13.45;9.18;;;;;;;42.39;36.60;97631.44;5079523;28;20838;-76
2023/07/12 08:40:06;;;;;;;12.60;9.00;;;;;;;42.93;36.62;97630.25;5060423;28;20107;-75
2023/07/12 08:42:35;;;;;;;17.50;8.63;;;;;;;43.22;35.84;97624.56;5070410;28;20024;-76
2023/07/12 08:45:05;;;;;;;10.23;8.07;;;;;;;44.03;34.69;97621.38;5067272;28;20025;-77
2023/07/12 08:47:36;;;;;;;24.88;18.23;;;;;;;44.21;34.16;97618.53;5049662;28;20425;-76
2023/07/12 08:50:15;;;;;;;13.32;9.55;;;;;;;45.09;32.11;97623.06;5049350;28;20380;-76
2023/07/12 08:52:44;;;;;;;21.17;7.88;;;;;;;45.96;30.64;97619.94;5049168;28;20072;-77
2023/07/12 08:55:38;;;;;;;12.98;7.47;;;;;;;46.05;29.49;97618.03;5043413;28;20036;-80
2023/07/12 08:58:53;;;;;;;12.27;8.43;;;;;;;45.65;30.98;97621.81;5063944;28;20035;-84
2023/07/12 09:02:10;;;;;;;;;;;;;;;;;;;;;
2023/07/12 09:12:56;;;;;;;10.52;7.15;;;;;;;47.25;28.19;97573.31;4876616;29;20037;-80
2023/07/12 09:15:21;;;;;;;19.58;7.90;;;;;;;48.15;27.39;97596.19;4862839;29;20051;-78
2023/07/12 09:17:47;;;;;;;14.80;8.88;;;;;;;48.34;26.96;97582.47;4997352;28;20123;-78
2023/07/12 09:20:34;;;;;;;11.65;7.93;;;;;;;47.85;26.73;97581.00;5045325;28;20135;-77
2023/07/12 09:23:00;;;;;;;12.02;7.35;;;;;;;48.55;26.87;97589.06;5045773;28;20463;-78
2023/07/12 09:25:47;;;;;;;10.15;7.53;;;;;;;48.26;26.08;97574.81;5048281;28;20068;-79
2023/07/12 09:28:16;;;;;;;15.30;8.73;;;;;;;45.98;27.75;97566.66;5048927;28;20048;-78
2023/07/12 09:30:44;;;;;;;13.50;7.32;;;;;;;46.05;27.75;97571.91;5037755;28;20123;-78
2023/07/12 09:33:23;;;;;;;11.40;7.03;;;;;;;46.99;27.89;97569.53;5051840;28;20024;-78
2023/07/12 09:35:49;;;;;;;8.55;7.30;;;;;;;46.87;27.50;97563.66;5035545;28;20029;-78
2023/07/12 09:38:25;;;;;;;13.18;7.30;;;;;;;47.88;26.23;97557.66;5068652;28;20032;-79
2023/07/12 09:40:52;;;;;;;9.63;6.68;;;;;;;47.94;26.05;97553.47;5051918;28;20032;-78
2023/07/12 09:43:18;;;;;;;8.45;6.78;;;;;;;46.58;26.93;97569.06;5052923;28;20024;-79
2023/07/12 09:46:11;;;;;;;12.07;6.70;;;;;;;47.67;26.00;97562.31;5059324;28;20028;-80
2023/07/12 09:48:45;;;;;;;11.00;6.88;;;;;;;48.48;25.63;97560.38;5060193;28;20047;-78
2023/07/12 09:51:47;;;;;;;27.60;20.40;;;;;;;49.46;24.51;97568.56;5049391;28;20028;-78
2023/07/12 09:54:25;;;;;;;8.88;6.85;;;;;;;47.92;25.39;97547.31;5066927;28;20083;-78
2023/07/12 09:56:58;;;;;;;8.68;6.53;;;;;;;46.38;26.72;97553.44;5063539;28;20550;-75
2023/07/12 09:59:36;;;;;;;9.65;8.68;;;;;;;46.58;27.09;97557.72;5047234;28;20033;-77
2023/07/12 10:02:15;;;;;;;13.13;7.43;;;;;;;47.83;25.86;97552.13;5059814;28;20513;-77
2023/07/12 10:04:54;;;;;;;8.95;6.78;;;;;;;48.72;24.54;97545.56;5051527;28;20055;-76
2023/07/12 10:07:28;;;;;;;11.63;7.13;;;;;;;48.41;24.86;97542.16;5051702;28;20519;-77
2023/07/12 10:09:54;;;;;;;8.25;6.90;;;;;;;48.56;24.79;97542.44;5068684;28;20031;-77
2023/07/12 10:12:39;;;;;;;11.02;6.65;;;;;;;48.71;24.72;97546.75;5032737;28;20033;-77
2023/07/12 10:15:10;;;;;;;11.38;7.13;;;;;;;49.51;24.22;97541.91;5047581;28;20029;-77
2023/07/12 10:17:38;;;;;;;13.25;7.05;;;;;;;50.03;23.25;97530.91;5059805;28;20033;-79
2023/07/12 10:20:04;;;;;;;9.80;7.25;;;;;;;49.98;22.87;97531.97;5067367;28;20033;-76
2023/07/12 10:22:38;;;;;;;13.88;7.30;;;;;;;50.51;23.28;97533.06;5067885;28;20032;-78
2023/07/12 10:25:24;;;;;;;17.42;7.60;;;;;;;50.65;23.06;97522.16;5067279;28;20028;-78
2023/07/12 10:27:58;;;;;;;11.48;6.78;;;;;;;51.25;22.64;97519.28;5067582;28;20487;-78
2023/07/12 10:30:25;;;;;;;16.60;7.95;;;;;;;50.95;23.18;97521.56;5057364;28;21964;-78
2023/07/12 10:33:29;;;;;;;8.63;6.97;;;;;;;51.07;22.24;97517.91;5048927;28;20120;-78
2023/07/12 10:35:57;;;;;;;10.85;7.57;;;;;;;51.19;22.07;97512.16;5031036;28;20029;-76
2023/07/12 10:38:23;;;;;;;12.63;8.73;;;;;;;50.75;22.63;97513.13;5047116;28;20035;-77
2023/07/12 10:40:55;;;;;;;10.88;6.50;;;;;;;50.45;22.66;97515.38;5051637;28;20486;-77
2023/07/12 10:43:43;;;;;;;13.50;7.18;;;;;;;50.24;22.35;97506.06;5050010;28;20033;-77
2023/07/12 10:46:13;;;;;;;7.80;5.90;;;;;;;48.56;23.49;97496.16;5050432;28;20125;-79
2023/07/12 10:48:48;;;;;;;9.82;6.82;;;;;;;49.65;22.83;97502.66;5034750;28;20020;-78
2023/07/12 10:51:26;;;;;;;12.27;6.90;;;;;;;50.20;22.29;97500.22;5068300;28;20442;-77
2023/07/12 10:53:54;;;;;;;14.88;6.82;;;;;;;50.42;22.34;97499.81;5068346;28;20498;-78
2023/07/12 10:56:32;;;;;;;8.20;6.75;;;;;;;50.47;22.22;97492.19;5042052;28;20040;-77
2023/07/12 10:59:00;;;;;;;9.38;6.65;;;;;;;49.62;22.89;97494.78;5046833;28;20078;-77
2023/07/12 11:01:41;;;;;;;9.48;6.80;;;;;;;50.23;22.19;97490.97;5046421;28;20029;-77
2023/07/12 11:04:08;;;;;;;9.65;6.78;;;;;;;50.25;22.63;97482.06;5048247;28;20051;-77
2023/07/12 11:06:33;;;;;;;14.13;7.13;;;;;;;48.92;22.77;97479.38;5058787;28;20107;-78
2023/07/12 11:08:59;;;;;;;7.97;6.40;;;;;;;48.62;23.21;97484.28;5067032;28;20099;-78
2023/07/12 11:11:35;;;;;;;8.07;6.20;;;;;;;47.75;23.62;97484.84;5066614;28;20040;-77
2023/07/12 11:14:17;;;;;;;8.00;7.20;;;;;;;46.71;24.88;97478.25;5060645;28;20024;-78
2023/07/12 11:16:50;;;;;;;14.27;7.07;;;;;;;48.22;23.51;97472.41;5046529;28;20098;-77
2023/07/12 11:19:46;;;;;;;12.27;6.78;;;;;;;49.76;21.96;97475.41;5045851;28;20107;-78
2023/07/12 11:22:23;;;;;;;8.23;6.70;;;;;;;48.71;22.70;97472.84;5057085;28;20135;-78
2023/07/12 11:24:52;;;;;;;9.30;6.75;;;;;;;49.26;22.59;97475.47;5069279;28;20032;-78
2023/07/12 11:27:26;;;;;;;8.25;6.40;;;;;;;49.95;22.49;97478.53;5070404;28;20056;-78
2023/07/12 11:29:54;;;;;;;15.63;8.48;;;;;;;49.99;22.53;97476.69;5070399;28;20056;-78
2023/07/12 11:32:29;;;;;;;13.98;9.60;;;;;;;50.43;21.55;97470.13;5070457;28;20069;-79
2023/07/12 11:35:19;;;;;;;15.57;11.57;;;;;;;51.04;21.54;97467.28;5068976;28;20119;-78
2023/07/12 11:37:47;;;;;;;7.82;6.97;;;;;;;49.69;22.08;97452.38;5068999;28;20531;-78
2023/07/12 11:40:25;;;;;;;7.50;6.60;;;;;;;50.00;22.30;97458.41;5069415;28;20052;-78
2023/07/12 11:42:51;;;;;;;12.95;6.32;;;;;;;49.75;22.04;97448.94;5058278;28;20488;-77
2023/07/12 11:45:20;;;;;;;10.90;6.43;;;;;;;49.39;22.91;97454.47;5049106;28;20029;-77
2023/07/12 11:47:48;;;;;;;15.32;7.03;;;;;;;50.25;22.49;97445.88;5051479;28;20044;-75
2023/07/12 11:50:20;;;;;;;11.38;6.63;;;;;;;48.90;23.20;97450.50;5069065;28;20139;-77